Time;durP1;ratioP1;P1;durP2;ratioP2;P2;SDS_P1;SDS_P2;PMS_P1;PMS_P2;Temp;Humidity;BMP_temperature;BMP_pressure;BME280_temperature;BME280_humidity;BME280_pressure;Samples;Min_cycle;Max_cycle;Signal;HPM_P1;HPM_P2
2022/06/26 00:01:00;;;;;;;19.00;17.20;;;;;;;18.32;100.00;101164.25;5035205;28;20218;-72
2022/06/26 00:03:26;;;;;;;19.13;17.20;;;;;;;18.52;100.00;101217.06;5038739;28;20199;-72
2022/06/26 00:05:52;;;;;;;20.17;18.20;;;;;;;18.37;100.00;101191.47;5035396;28;20438;-72
2022/06/26 00:08:18;;;;;;;20.60;18.50;;;;;;;18.12;100.00;101154.63;5037053;28;20738;-72
2022/06/26 00:10:45;;;;;;;20.73;18.80;;;;;;;18.94;100.00;101283.88;5037056;28;20883;-72
2022/06/26 00:13:10;;;;;;;20.57;18.57;;;;;;;18.44;100.00;101222.88;5039531;28;20207;-72
2022/06/26 00:15:36;;;;;;;22.03;19.73;;;;;;;18.40;100.00;101220.84;5041072;28;20433;-72
2022/06/26 00:18:01;;;;;;;20.80;18.83;;;;;;;18.72;100.00;101276.38;5035073;28;20739;-72
2022/06/26 00:20:27;;;;;;;19.90;17.87;;;;;;;18.73;100.00;101259.03;5039528;28;20211;-72
2022/06/26 00:22:52;;;;;;;20.80;18.87;;;;;;;18.53;100.00;101242.31;5038198;28;20204;-72
2022/06/26 00:25:18;;;;;;;22.10;19.77;;;;;;;18.12;100.00;101151.91;5036382;28;20668;-72
2022/06/26 00:27:45;;;;;;;20.37;18.47;;;;;;;18.75;100.00;101258.81;5037907;28;20206;-72
2022/06/26 00:30:11;;;;;;;21.20;19.20;;;;;;;18.25;100.00;101178.78;5038285;28;20202;-72
2022/06/26 00:32:36;;;;;;;22.10;19.30;;;;;;;18.64;100.00;101241.44;5039215;28;20497;-72
2022/06/26 00:35:02;;;;;;;20.77;18.70;;;;;;;18.09;100.00;101170.56;5035037;28;20186;-72
2022/06/26 00:37:28;;;;;;;23.63;21.33;;;;;;;18.36;100.00;101219.69;5038787;28;20187;-72
2022/06/26 00:39:53;;;;;;;21.63;19.43;;;;;;;17.94;100.00;101133.09;5036168;28;20431;-72
2022/06/26 00:42:18;;;;;;;21.73;19.63;;;;;;;18.81;100.00;101265.16;5035263;28;20699;-71
2022/06/26 00:44:44;;;;;;;22.37;19.37;;;;;;;18.21;100.00;101193.91;5040881;28;20172;-71
2022/06/26 00:47:09;;;;;;;21.90;19.73;;;;;;;18.80;100.00;101267.03;5037420;28;20190;-71
2022/06/26 00:49:35;;;;;;;21.93;19.73;;;;;;;18.30;100.00;101206.03;5036655;28;20640;-71
2022/06/26 00:52:01;;;;;;;21.80;19.67;;;;;;;18.82;100.00;101270.34;5036357;28;20223;-72
2022/06/26 00:54:29;;;;;;;21.40;19.33;;;;;;;18.71;100.00;101269.28;5039834;28;20556;-71
2022/06/26 00:56:56;;;;;;;20.93;18.90;;;;;;;18.38;100.00;101228.44;5035943;28;20434;-71
2022/06/26 00:59:24;;;;;;;21.07;19.07;;;;;;;18.13;100.00;101180.69;5040193;28;20446;-72
2022/06/26 01:01:50;;;;;;;21.13;18.93;;;;;;;18.19;100.00;101190.59;5034258;28;20488;-71
2022/06/26 01:04:16;;;;;;;20.47;18.47;;;;;;;18.06;100.00;101182.72;5034482;28;21789;-72
2022/06/26 01:06:42;;;;;;;22.40;20.17;;;;;;;18.58;100.00;101261.44;5034721;28;20180;-72
2022/06/26 01:09:09;;;;;;;20.77;18.77;;;;;;;18.36;100.00;101230.56;5043438;28;20484;-71
2022/06/26 01:11:34;;;;;;;19.13;17.33;;;;;;;18.34;100.00;101227.25;5041106;28;20755;-72
2022/06/26 01:14:00;;;;;;;20.13;18.03;;;;;;;17.67;100.00;101132.75;5038987;28;20812;-72
2022/06/26 01:16:26;;;;;;;20.53;18.53;;;;;;;18.46;100.00;101268.81;5042709;28;20211;-72
2022/06/26 01:18:54;;;;;;;19.53;17.73;;;;;;;17.83;100.00;101161.91;5041946;28;20803;-72
2022/06/26 01:21:22;;;;;;;20.03;17.93;;;;;;;17.65;100.00;101129.44;5040817;28;20176;-72
2022/06/26 01:23:47;;;;;;;19.50;17.60;;;;;;;17.70;100.00;101143.94;5039751;28;20961;-72
2022/06/26 01:26:14;;;;;;;20.07;18.17;;;;;;;17.93;100.00;101153.13;5043694;28;20588;-73
2022/06/26 01:28:39;;;;;;;19.10;17.27;;;;;;;17.66;100.00;101112.13;5039766;28;20430;-72
2022/06/26 01:31:05;;;;;;;18.97;17.13;;;;;;;17.59;100.00;101113.09;5036031;28;20566;-72
2022/06/26 01:33:30;;;;;;;19.17;17.37;;;;;;;17.57;100.00;101106.25;5041855;28;20283;-73
2022/06/26 01:35:55;;;;;;;17.83;16.13;;;;;;;18.05;100.00;101200.06;5041275;28;20180;-73
2022/06/26 01:38:22;;;;;;;17.63;15.97;;;;;;;17.74;100.00;101164.13;5040240;28;20195;-72
2022/06/26 01:40:53;;;;;;;17.87;16.07;;;;;;;18.44;100.00;101260.06;5040677;28;20550;-72
2022/06/26 01:43:20;;;;;;;18.87;17.00;;;;;;;18.09;100.00;101227.59;5040563;28;20466;-73
2022/06/26 01:45:48;;;;;;;17.03;15.43;;;;;;;18.05;100.00;101205.50;5039903;28;20910;-73
2022/06/26 01:48:15;;;;;;;18.47;16.67;;;;;;;18.22;100.00;101241.69;5041980;28;20487;-72
2022/06/26 01:50:40;;;;;;;19.43;17.50;;;;;;;17.57;100.00;101174.06;5040537;28;20510;-72
2022/06/26 01:53:06;;;;;;;18.87;16.97;;;;;;;18.18;100.00;101256.00;5038568;28;20474;-74
2022/06/26 01:55:32;;;;;;;19.43;16.60;;;;;;;17.52;100.00;101155.78;5038830;28;20191;-72
2022/06/26 01:58:02;;;;;;;17.47;15.87;;;;;;;18.22;100.00;101252.53;5040566;28;20445;-72
2022/06/26 02:00:32;;;;;;;19.83;17.93;;;;;;;18.21;100.00;101250.09;5040432;28;20183;-73
2022/06/26 02:02:58;;;;;;;20.17;18.17;;;;;;;17.89;100.00;101184.53;5038905;28;20982;-72
2022/06/26 02:05:24;;;;;;;18.40;16.60;;;;;;;17.78;100.00;101175.34;5033344;28;20442;-72
2022/06/26 02:07:50;;;;;;;20.33;18.40;;;;;;;18.28;100.00;101254.34;5037544;28;20442;-72
2022/06/26 02:15:46;;;;;;;24.47;22.07;;;;;;;18.30;100.00;101216.06;5038083;28;20442;-72
2022/06/26 02:18:12;;;;;;;24.07;21.70;;;;;;;18.37;100.00;101219.47;5040056;28;20434;-73
2022/06/26 02:20:38;;;;;;;23.93;21.53;;;;;;;18.53;100.00;101250.47;5040332;28;20482;-72
2022/06/26 02:23:03;;;;;;;26.13;23.33;;;;;;;18.10;100.00;101174.94;5041251;28;20494;-72
2022/06/26 02:25:29;;;;;;;24.10;21.77;;;;;;;18.46;100.00;101231.59;5037217;28;20192;-73
2022/06/26 02:27:54;;;;;;;26.90;24.17;;;;;;;18.24;100.00;101190.69;5039082;28;20608;-73
2022/06/26 02:30:20;;;;;;;26.20;23.40;;;;;;;18.09;100.00;101160.53;5041386;28;20191;-72
2022/06/26 02:32:45;;;;;;;27.03;24.23;;;;;;;18.04;100.00;101174.81;5036452;28;20238;-72
2022/06/26 02:35:10;;;;;;;25.77;23.27;;;;;;;18.59;100.00;101243.25;5041230;28;20191;-73
2022/06/26 02:37:36;;;;;;;26.90;24.30;;;;;;;18.30;100.00;101200.59;5038551;28;20207;-72
2022/06/26 02:40:03;;;;;;;28.27;25.40;;;;;;;18.20;100.00;101189.53;5039265;28;20207;-72
2022/06/26 02:42:29;;;;;;;25.93;23.33;;;;;;;18.21;100.00;101210.19;5038309;28;20959;-72
2022/06/26 02:44:54;;;;;;;26.53;23.83;;;;;;;17.91;100.00;101147.16;5039858;28;20442;-72
2022/06/26 02:47:19;;;;;;;24.13;21.70;;;;;;;18.65;100.00;101272.16;5039962;28;20188;-72
2022/06/26 02:49:45;;;;;;;30.17;27.13;;;;;;;18.16;100.00;101223.66;5040523;28;20271;-72
2022/06/26 02:52:10;;;;;;;29.03;25.67;;;;;;;18.53;100.00;101288.50;5038136;28;20262;-72
2022/06/26 02:54:36;;;;;;;26.90;24.10;;;;;;;18.25;100.00;101257.53;5037565;28;20180;-71
2022/06/26 02:57:01;;;;;;;23.77;21.33;;;;;;;17.83;100.00;101165.44;5038674;28;20187;-71
2022/06/26 02:59:27;;;;;;;23.43;21.20;;;;;;;18.43;100.00;101261.97;5038215;28;20206;-72
2022/06/26 03:01:52;;;;;;;28.03;25.20;;;;;;;18.79;100.00;101367.84;5036398;28;20830;-71
2022/06/26 03:04:17;;;;;;;24.53;22.03;;;;;;;18.16;100.00;101223.66;5040710;28;20184;-71
2022/06/26 03:06:43;;;;;;;22.73;20.43;;;;;;;18.96;100.00;101377.72;5038912;28;20664;-72
2022/06/26 03:09:08;;;;;;;21.73;19.63;;;;;;;18.61;100.00;101262.84;5038598;28;20183;-72
2022/06/26 03:11:34;;;;;;;21.00;18.90;;;;;;;18.51;100.00;101286.03;5038593;28;20204;-72
2022/06/26 03:14:00;;;;;;;24.93;22.70;;;;;;;19.15;100.00;101359.34;5040645;28;20200;-71
2022/06/26 03:16:25;;;;;;;21.40;19.27;;;;;;;18.10;100.00;101174.94;5039038;28;20442;-72
2022/06/26 03:18:51;;;;;;;22.00;19.70;;;;;;;18.65;100.00;101272.97;5039923;28;20179;-71
2022/06/26 03:21:17;;;;;;;25.93;23.37;;;;;;;18.59;100.00;101252.22;5039397;28;20241;-71
2022/06/26 03:24:01;;;;;;;18.53;16.70;;;;;;;18.54;100.00;101243.97;5035967;28;20210;-71
2022/06/26 03:26:27;;;;;;;19.40;17.50;;;;;;;18.68;100.00;101258.91;5041748;28;20434;-72
2022/06/26 03:28:52;;;;;;;18.47;16.40;;;;;;;18.87;100.00;101286.75;5040438;28;20442;-72
2022/06/26 03:31:17;;;;;;;17.40;14.20;;;;;;;18.41;100.00;101207.06;5042337;28;20426;-72
2022/06/26 03:33:43;;;;;;;13.10;11.80;;;;;;;17.57;100.00;101049.28;5042652;28;20199;-72
2022/06/26 03:36:08;;;;;;;15.10;12.23;;;;;;;18.40;100.00;101174.69;5038828;28;20181;-72
2022/06/26 03:38:38;;;;;;;12.03;10.83;;;;;;;19.22;100.00;101293.91;5036635;22;20238;-67
2022/06/26 03:41:04;;;;;;;15.73;12.13;;;;;;;19.08;100.00;101285.22;5013494;28;20243;-67
2022/06/26 03:43:29;;;;;;;10.33;9.27;;;;;;;19.09;100.00;101277.88;5019489;28;20439;-67
2022/06/26 03:45:54;;;;;;;10.77;9.77;;;;;;;19.15;100.00;101291.34;5017314;28;20618;-67
2022/06/26 03:48:20;;;;;;;14.27;11.23;;;;;;;19.11;100.00;101300.22;5015896;28;20298;-67
2022/06/26 03:50:46;;;;;;;9.10;8.20;;;;;;;19.07;100.00;101302.63;5016422;28;20275;-67
2022/06/26 03:53:11;;;;;;;9.73;8.73;;;;;;;18.99;100.00;101280.44;5019029;28;20215;-68
2022/06/26 03:55:37;;;;;;;8.80;7.90;;;;;;;18.91;100.00;101298.78;5014067;28;20683;-68
2022/06/26 03:58:03;;;;;;;6.33;5.73;;;;;;;19.08;100.00;101298.81;5014947;28;20224;-67
2022/06/26 04:00:29;;;;;;;7.63;6.83;;;;;;;18.88;100.00;101314.75;5014417;28;20504;-66
2022/06/26 04:02:55;;;;;;;6.90;5.90;;;;;;;18.81;100.00;101292.34;5013870;28;20442;-67
2022/06/26 04:05:21;;;;;;;6.00;5.20;;;;;;;18.92;100.00;101310.50;5013344;28;20513;-67
2022/06/26 04:07:47;;;;;;;5.63;4.87;;;;;;;19.07;100.00;101301.81;5017181;28;20306;-67
2022/06/26 04:10:13;;;;;;;6.00;5.33;;;;;;;19.02;100.00;101307.13;5015100;28;20455;-68
2022/06/26 04:12:39;;;;;;;5.00;4.50;;;;;;;19.09;100.00;101300.50;5015203;28;20502;-68
2022/06/26 04:15:05;;;;;;;6.20;5.37;;;;;;;18.94;100.00;101313.78;5015294;28;20275;-68
2022/06/26 04:17:30;;;;;;;10.50;4.90;;;;;;;18.92;100.00;101315.94;5015856;28;20199;-68
2022/06/26 04:19:56;;;;;;;6.73;4.30;;;;;;;18.92;100.00;101315.94;5015132;28;20447;-68
2022/06/26 04:22:22;;;;;;;4.60;3.53;;;;;;;18.78;100.00;101311.84;5014009;28;20581;-68
2022/06/26 04:24:47;;;;;;;3.33;2.67;;;;;;;18.85;100.00;101315.25;5012710;28;20557;-68
2022/06/26 04:27:13;;;;;;;3.00;2.80;;;;;;;18.81;100.00;101314.09;5013893;28;20455;-68
2022/06/26 04:29:38;;;;;;;3.73;2.70;;;;;;;18.83;100.00;101311.94;5016360;28;20216;-68
2022/06/26 04:32:04;;;;;;;1.80;1.70;;;;;;;18.71;100.00;101301.06;5014103;28;20216;-68
2022/06/26 04:34:29;;;;;;;2.70;1.87;;;;;;;18.70;100.00;101299.44;5015965;28;20189;-68
2022/06/26 04:36:55;;;;;;;1.40;1.30;;;;;;;18.67;100.00;101313.50;5013925;28;20558;-68
2022/06/26 04:39:20;;;;;;;1.20;1.10;;;;;;;18.68;100.00;101324.13;5016310;28;20209;-67
2022/06/26 04:41:47;;;;;;;4.00;1.97;;;;;;;18.68;100.00;101326.00;5012119;28;20311;-68
2022/06/26 04:44:13;;;;;;;2.27;1.83;;;;;;;18.75;100.00;101321.31;5012497;28;20543;-68
2022/06/26 04:46:41;;;;;;;1.77;1.50;;;;;;;18.82;100.00;101326.59;5016349;28;20451;-68
2022/06/26 04:49:07;;;;;;;1.40;1.30;;;;;;;18.81;100.00;101330.41;5016043;28;20375;-68
2022/06/26 04:51:36;;;;;;;1.57;0.90;;;;;;;18.74;100.00;101334.03;5010282;28;20448;-68
2022/06/26 04:54:03;;;;;;;1.50;1.37;;;;;;;18.75;100.00;101337.63;5014026;28;20442;-68
2022/06/26 04:56:29;;;;;;;2.80;1.30;;;;;;;18.62;100.00;101294.38;5013213;28;20443;-68
2022/06/26 04:58:54;;;;;;;1.57;0.97;;;;;;;18.84;100.00;101333.44;5016140;28;20478;-68
2022/06/26 05:01:20;;;;;;;1.20;0.90;;;;;;;18.83;100.00;101341.81;5014185;28;20192;-68
2022/06/26 05:03:46;;;;;;;2.80;1.07;;;;;;;18.84;100.00;101336.16;5015281;28;20644;-67
2022/06/26 05:06:11;;;;;;;1.00;0.90;;;;;;;18.51;100.00;101296.06;5017786;28;20223;-68
2022/06/26 05:08:37;;;;;;;2.93;1.00;;;;;;;18.82;100.00;101332.03;5015181;28;20234;-68
2022/06/26 05:11:02;;;;;;;1.00;0.90;;;;;;;18.85;100.00;101336.97;5015784;28;20197;-68
2022/06/26 05:13:28;;;;;;;2.00;1.20;;;;;;;18.36;100.00;101276.72;5014372;28;20239;-68
2022/06/26 05:15:53;;;;;;;3.47;1.30;;;;;;;18.79;100.00;101348.81;5014088;28;20232;-68
2022/06/26 05:18:19;;;;;;;1.20;0.90;;;;;;;18.71;100.00;101364.38;5017064;28;20200;-68
2022/06/26 05:20:44;;;;;;;1.80;1.00;;;;;;;18.85;100.00;101353.28;5014262;28;20557;-68
2022/06/26 05:23:12;;;;;;;1.40;0.80;;;;;;;18.86;100.00;101350.34;5013578;28;20208;-67
2022/06/26 05:25:39;;;;;;;0.93;0.80;;;;;;;18.74;100.00;101330.50;5014094;28;20811;-68
2022/06/26 05:28:04;;;;;;;1.13;0.80;;;;;;;18.91;100.00;101363.19;5018967;28;20469;-68
2022/06/26 05:30:30;;;;;;;1.83;0.93;;;;;;;18.87;100.00;101375.63;5013857;28;20447;-67
2022/06/26 05:32:55;;;;;;;1.47;0.90;;;;;;;18.81;100.00;101358.38;5015256;28;20230;-67
2022/06/26 05:35:20;;;;;;;0.90;0.80;;;;;;;18.26;100.00;101280.88;5016673;28;20195;-68
2022/06/26 05:37:46;;;;;;;0.77;0.73;;;;;;;18.86;100.00;101377.53;5017092;28;20684;-68
2022/06/26 05:40:12;;;;;;;1.23;1.03;;;;;;;18.80;100.00;101377.63;5015701;28;20185;-68
2022/06/26 05:42:37;;;;;;;1.20;1.10;;;;;;;18.84;100.00;101390.53;5013252;28;21604;-68
2022/06/26 05:45:03;;;;;;;2.90;1.03;;;;;;;18.85;100.00;101391.34;5017008;28;20450;-68
2022/06/26 05:47:29;;;;;;;0.80;0.80;;;;;;;19.02;100.00;101400.38;5018376;28;20192;-68
2022/06/26 05:49:54;;;;;;;1.63;1.03;;;;;;;18.92;100.00;101384.72;5019215;28;20322;-68
2022/06/26 05:52:19;;;;;;;0.97;0.87;;;;;;;18.49;100.00;101312.59;5014892;28;20576;-67
2022/06/26 05:54:45;;;;;;;1.30;1.00;;;;;;;19.02;100.00;101397.66;5018192;28;20660;-68
2022/06/26 05:57:10;;;;;;;1.23;0.80;;;;;;;19.03;100.00;101417.53;5017684;28;20220;-67
2022/06/26 05:59:35;;;;;;;1.30;0.93;;;;;;;19.01;100.00;101396.03;5020558;28;20694;-67
2022/06/26 06:02:01;;;;;;;1.33;1.00;;;;;;;19.04;100.00;101422.72;5016986;28;20192;-68
2022/06/26 06:04:26;;;;;;;1.60;1.03;;;;;;;18.82;100.00;101413.56;5018325;28;20189;-68
2022/06/26 06:06:52;;;;;;;1.30;1.03;;;;;;;18.94;100.00;101428.75;5017641;28;20188;-67
2022/06/26 06:09:17;;;;;;;2.40;1.00;;;;;;;18.90;100.00;101435.75;5019347;28;20216;-68
2022/06/26 06:11:43;;;;;;;2.40;1.13;;;;;;;18.90;100.00;101424.88;5016748;28;20216;-68
2022/06/26 06:14:08;;;;;;;1.00;0.90;;;;;;;18.80;100.00;101383.91;5017354;28;20692;-68
2022/06/26 06:16:34;;;;;;;1.20;1.10;;;;;;;19.14;100.00;101443.84;5020270;28;20239;-68
2022/06/26 06:18:59;;;;;;;1.30;1.13;;;;;;;18.54;100.00;101347.19;5018216;28;20645;-68
2022/06/26 06:21:24;;;;;;;1.30;1.20;;;;;;;18.94;100.00;101417.91;5014380;28;20185;-68
2022/06/26 06:23:50;;;;;;;1.87;1.40;;;;;;;18.96;100.00;101461.16;5018002;28;20275;-67
2022/06/26 06:26:15;;;;;;;1.27;1.10;;;;;;;18.72;100.00;101435.88;5018424;28;20184;-68
2022/06/26 06:28:41;;;;;;;2.20;1.30;;;;;;;19.08;100.00;101464.66;5020141;28;20673;-68
2022/06/26 06:31:06;;;;;;;1.40;1.30;;;;;;;19.16;100.00;101456.16;5016437;28;20257;-68
2022/06/26 06:33:32;;;;;;;1.57;1.40;;;;;;;19.18;100.00;101461.34;5022119;28;20614;-67
2022/06/26 06:35:58;;;;;;;1.53;1.30;;;;;;;19.18;100.00;101464.91;5013794;28;20619;-68
2022/06/26 06:38:25;;;;;;;1.67;1.50;;;;;;;17.71;100.00;101243.28;5020155;28;20227;-67
2022/06/26 06:40:50;;;;;;;2.13;1.73;;;;;;;18.90;100.00;101487.41;5017792;28;20177;-67
2022/06/26 06:43:16;;;;;;;2.17;1.43;;;;;;;19.12;100.00;101498.50;5017072;28;20929;-67
2022/06/26 06:45:41;;;;;;;2.00;1.47;;;;;;;19.31;100.00;101495.59;5016928;28;20196;-68
2022/06/26 06:48:08;;;;;;;1.87;1.50;;;;;;;19.24;100.00;101501.19;5019618;28;20239;-67
2022/06/26 06:50:34;;;;;;;2.50;2.23;;;;;;;19.10;100.00;101489.75;5018181;28;20524;-67
2022/06/26 06:52:59;;;;;;;3.20;2.90;;;;;;;19.24;100.00;101493.03;5015305;28;20463;-68
2022/06/26 06:55:25;;;;;;;3.13;2.80;;;;;;;19.31;100.00;101492.88;5020897;28;20211;-68
2022/06/26 06:57:50;;;;;;;2.50;2.27;;;;;;;19.05;100.00;101470.59;5014792;28;20266;-67
2022/06/26 07:00:16;;;;;;;2.00;1.90;;;;;;;19.26;100.00;101492.75;5018744;28;20243;-68
2022/06/26 07:02:41;;;;;;;1.70;1.60;;;;;;;18.94;100.00;101466.00;5016605;28;20181;-67
2022/06/26 07:05:08;;;;;;;2.80;2.20;;;;;;;19.04;100.00;101490.69;5016539;28;20275;-67
2022/06/26 07:07:35;;;;;;;2.53;2.00;;;;;;;19.05;100.00;101489.63;5018633;28;20238;-68
2022/06/26 07:10:00;;;;;;;4.47;2.40;;;;;;;19.18;100.00;101496.72;5014896;28;20927;-68
2022/06/26 07:12:26;;;;;;;2.57;2.37;;;;;;;19.15;100.00;101498.00;5016767;28;20475;-67
2022/06/26 07:14:52;;;;;;;2.20;2.10;;;;;;;19.16;100.00;101504.28;5019354;28;20180;-67
2022/06/26 07:17:18;;;;;;;3.60;2.90;;;;;;;19.14;100.00;101498.25;5018428;28;20565;-67
2022/06/26 07:19:44;;;;;;;3.77;3.47;;;;;;;18.88;100.00;101461.53;5020627;28;20445;-66
2022/06/26 07:22:10;;;;;;;4.37;3.20;;;;;;;19.14;100.00;101515.38;5019041;28;20805;-67
2022/06/26 07:24:35;;;;;;;2.40;2.20;;;;;;;19.20;100.00;101517.13;5020562;28;20184;-67
2022/06/26 07:27:03;;;;;;;3.83;3.43;;;;;;;19.18;100.00;101519.28;5020241;28;20191;-68
2022/06/26 07:29:29;;;;;;;3.80;3.13;;;;;;;19.22;100.00;101524.25;5021530;28;20210;-68
2022/06/26 07:31:54;;;;;;;3.00;2.80;;;;;;;19.19;100.00;101523.66;5015345;28;20860;-68
2022/06/26 07:34:20;;;;;;;3.83;3.53;;;;;;;18.94;100.00;101488.56;5013843;28;20189;-68
2022/06/26 07:36:50;;;;;;;3.13;2.87;;;;;;;18.99;100.00;101500.63;5017733;28;20638;-68
2022/06/26 07:39:18;;;;;;;3.47;3.23;;;;;;;18.49;100.00;101437.56;5017501;28;20267;-68
2022/06/26 07:41:45;;;;;;;2.30;2.10;;;;;;;19.31;100.00;101534.50;5014415;28;20947;-68
2022/06/26 07:44:11;;;;;;;4.10;3.70;;;;;;;19.25;100.00;101537.34;5011234;28;20800;-68
2022/06/26 07:46:37;;;;;;;3.20;2.90;;;;;;;18.94;100.00;101474.16;5009041;28;20448;-69
2022/06/26 07:49:04;;;;;;;3.60;2.80;;;;;;;19.42;100.00;101549.16;5016694;28;21868;-69
2022/06/26 07:51:31;;;;;;;3.57;3.37;;;;;;;19.21;100.00;101515.25;5014108;28;20185;-68
2022/06/26 07:53:56;;;;;;;4.47;3.57;;;;;;;19.37;100.00;101544.41;5012598;28;20447;-68
2022/06/26 07:56:22;;;;;;;3.40;3.00;;;;;;;19.38;100.00;101546.09;5017728;28;20453;-68
2022/06/26 07:58:48;;;;;;;3.33;3.03;;;;;;;19.15;100.00;101500.72;5018370;28;20291;-69
2022/06/26 08:01:14;;;;;;;4.00;3.70;;;;;;;19.34;100.00;101553.06;5005803;28;20455;-69
2022/06/26 08:03:39;;;;;;;3.67;3.13;;;;;;;18.80;100.00;101460.00;5007411;28;20208;-68
2022/06/26 08:06:05;;;;;;;3.83;3.53;;;;;;;19.35;100.00;101553.88;5009176;28;21756;-68
2022/06/26 08:08:30;;;;;;;5.10;3.37;;;;;;;19.26;100.00;101528.94;5012086;28;20672;-68
2022/06/26 08:10:56;;;;;;;4.40;4.00;;;;;;;19.43;100.00;101548.06;5004626;28;20188;-68
2022/06/26 08:13:22;;;;;;;3.03;2.83;;;;;;;19.55;100.00;101561.63;4984692;28;20832;-68
2022/06/26 08:15:47;;;;;;;4.03;3.70;;;;;;;19.32;100.00;101524.44;5003047;28;20204;-69
2022/06/26 08:18:12;;;;;;;4.90;4.10;;;;;;;19.31;100.00;101542.66;5009182;28;20261;-70
2022/06/26 08:20:39;;;;;;;4.60;3.70;;;;;;;19.03;100.00;101545.31;5013306;28;20199;-72
2022/06/26 08:23:05;;;;;;;3.90;3.60;;;;;;;19.37;100.00;101578.97;5013662;28;20176;-69
2022/06/26 08:25:30;;;;;;;4.43;4.00;;;;;;;19.24;100.00;101541.13;5013648;28;20486;-71
2022/06/26 08:27:56;;;;;;;4.30;3.80;;;;;;;19.39;100.00;101552.34;5013847;28;20570;-70
2022/06/26 08:30:21;;;;;;;5.13;4.63;;;;;;;19.54;100.00;101574.41;5018229;28;20287;-70
2022/06/26 08:32:47;;;;;;;5.30;4.80;;;;;;;18.81;100.00;101469.81;5018867;28;20273;-70
2022/06/26 08:35:13;;;;;;;5.40;4.90;;;;;;;19.06;100.00;101523.06;5014004;28;20191;-72
2022/06/26 08:37:39;;;;;;;5.60;5.10;;;;;;;19.44;100.00;101568.78;5014743;28;20212;-70
2022/06/26 08:40:05;;;;;;;5.17;4.30;;;;;;;19.18;100.00;101502.97;5020024;28;20477;-69
2022/06/26 08:42:31;;;;;;;5.87;4.67;;;;;;;19.03;100.00;101478.16;5016687;28;20569;-69
2022/06/26 08:44:58;;;;;;;6.00;5.50;;;;;;;19.57;100.00;101570.41;5016742;28;20469;-70
2022/06/26 08:47:25;;;;;;;7.10;4.60;;;;;;;19.58;100.00;101575.59;5011425;28;20874;-70
2022/06/26 08:49:52;;;;;;;5.87;5.23;;;;;;;19.63;100.00;101577.59;5018167;28;20453;-70
2022/06/26 08:52:20;;;;;;;6.57;5.97;;;;;;;19.64;100.00;101581.94;5015657;28;21040;-73
2022/06/26 08:54:46;;;;;;;7.00;6.30;;;;;;;19.67;100.00;101569.78;5012584;28;21033;-68
2022/06/26 08:57:13;;;;;;;7.37;6.57;;;;;;;19.73;100.00;101577.84;5017577;28;20558;-68
2022/06/26 08:59:39;;;;;;;5.30;4.80;;;;;;;19.81;100.00;101591.03;5012427;28;20534;-68
2022/06/26 09:02:05;;;;;;;7.63;6.90;;;;;;;19.66;100.00;101582.56;5007449;28;20462;-72
2022/06/26 09:04:31;;;;;;;8.70;7.80;;;;;;;19.48;100.00;101548.19;5007147;28;20189;-72
2022/06/26 09:06:56;;;;;;;6.90;6.20;;;;;;;19.53;100.00;101556.44;5008102;28;20439;-72
2022/06/26 09:09:24;;;;;;;8.10;7.40;;;;;;;19.60;100.00;101575.34;5009726;28;20219;-69
2022/06/26 09:11:55;;;;;;;7.30;6.60;;;;;;;19.86;100.00;101615.66;5003530;28;20215;-72
2022/06/26 09:14:22;;;;;;;7.50;6.83;;;;;;;19.33;100.00;101518.78;5007895;28;20444;-72
2022/06/26 09:16:49;;;;;;;7.80;7.00;;;;;;;20.00;100.00;101612.66;5013178;28;20467;-72
2022/06/26 09:19:28;;;;;;;9.30;7.00;;;;;;;19.69;100.00;101570.38;5011530;28;21420;-72
2022/06/26 09:22:12;;;;;;;7.63;7.03;;;;;;;20.08;100.00;101628.63;5008139;28;20416;-72
2022/06/26 09:24:40;;;;;;;9.00;8.20;;;;;;;19.72;100.00;101603.38;5011037;28;20431;-72
2022/06/26 09:27:15;;;;;;;9.03;8.13;;;;;;;19.97;100.00;101635.75;5014065;28;20450;-71
2022/06/26 09:29:48;;;;;;;8.03;7.27;;;;;;;20.22;100.00;101631.84;5015808;28;20442;-72
2022/06/26 09:32:15;;;;;;;8.90;8.10;;;;;;;20.04;100.00;101587.41;5019417;28;20487;-72
2022/06/26 09:34:52;;;;;;;7.33;6.63;;;;;;;19.99;100.00;101602.81;5016759;28;20446;-73
2022/06/26 09:37:19;;;;;;;7.47;6.77;;;;;;;19.69;100.00;101571.22;5016072;28;20923;-72
2022/06/26 09:39:45;;;;;;;7.43;6.67;;;;;;;19.94;100.00;101619.91;5007869;28;20466;-72
2022/06/26 09:42:21;;;;;;;7.40;6.70;;;;;;;20.11;100.00;101616.41;5017412;28;20438;-73
2022/06/26 09:44:57;;;;;;;5.57;5.07;;;;;;;20.09;100.00;101570.34;5009406;28;20808;-72
2022/06/26 09:47:31;;;;;;;9.23;6.53;;;;;;;20.26;100.00;101613.97;5011185;28;20435;-72
2022/06/26 09:50:01;;;;;;;6.40;5.90;;;;;;;20.14;100.00;101586.78;5012020;28;20938;-73
2022/06/26 09:52:29;;;;;;;4.83;4.43;;;;;;;20.46;100.00;101625.22;5019154;28;20500;-74
2022/06/26 09:54:57;;;;;;;5.73;5.07;;;;;;;20.45;100.00;101622.72;5019382;28;20928;-72
2022/06/26 09:57:22;;;;;;;5.37;4.57;;;;;;;20.47;100.00;101615.97;5015424;28;20466;-73
2022/06/26 09:59:48;;;;;;;6.40;5.80;;;;;;;20.64;100.00;101628.81;5013468;28;20537;-72
2022/06/26 10:07:53;;;;;;;10.97;8.60;;;;;;;20.59;100.00;101651.34;5012475;28;20461;-73
2022/06/26 10:13:02;;;;;;;7.37;6.50;;;;;;;20.97;100.00;101655.25;5032533;28;20494;-70
2022/06/26 10:15:35;;;;;;;6.17;5.60;;;;;;;20.88;100.00;101635.75;5045713;28;20930;-70
2022/06/26 10:18:19;;;;;;;6.77;6.10;;;;;;;20.96;100.00;101650.88;5044341;28;20825;-70
2022/06/26 10:20:47;;;;;;;7.83;7.13;;;;;;;20.63;100.00;101638.09;5039826;28;20462;-70
2022/06/26 10:23:29;;;;;;;7.73;6.43;;;;;;;20.72;100.00;101634.69;5031166;28;20423;-70
2022/06/26 10:25:54;;;;;;;6.20;5.40;;;;;;;20.87;100.00;101645.00;5025730;28;21031;-70
2022/06/26 10:28:19;;;;;;;5.00;4.60;;;;;;;21.07;100.00;101660.06;5029967;28;20435;-71
2022/06/26 10:30:45;;;;;;;5.00;4.60;;;;;;;20.80;100.00;101598.03;5030744;28;20255;-70
2022/06/26 10:33:18;;;;;;;4.90;4.50;;;;;;;21.07;100.00;101660.06;5028221;28;20208;-70
2022/06/26 10:35:56;;;;;;;5.27;4.80;;;;;;;20.66;100.00;101583.88;5028342;28;20177;-71
2022/06/26 10:38:27;;;;;;;4.80;4.40;;;;;;;21.02;100.00;101654.53;5027454;28;20410;-70
2022/06/26 10:44:13;;;;;;;2.70;2.50;;;;;;;20.70;100.00;101614.19;5030944;28;20399;-70
2022/06/26 10:46:44;;;;;;;3.53;2.83;;;;;;;20.76;100.00;101589.50;5029322;28;20418;-70
2022/06/26 10:49:10;;;;;;;4.33;2.43;;;;;;;21.27;100.00;101615.88;5031208;28;20914;-71
2022/06/26 10:51:40;;;;;;;2.73;2.53;;;;;;;21.14;100.00;101598.78;5025547;28;20474;-70
2022/06/26 10:54:29;;;;;;;4.47;3.30;;;;;;;21.05;100.00;101577.66;5030539;28;20207;-70
2022/06/26 10:57:02;;;;;;;4.03;3.63;;;;;;;21.32;100.00;101610.47;5028233;28;20556;-70
2022/06/26 10:59:28;;;;;;;5.13;3.73;;;;;;;21.12;100.00;101575.59;5026230;28;20462;-70
2022/06/26 11:01:54;;;;;;;3.30;3.00;;;;;;;21.08;100.00;101566.22;5029510;28;20490;-70
2022/06/26 11:04:19;;;;;;;3.10;2.80;;;;;;;21.18;100.00;101567.22;5025560;28;20736;-71
2022/06/26 11:06:45;;;;;;;4.20;3.73;;;;;;;21.30;100.00;101553.44;5028782;28;20600;-71
2022/06/26 11:09:11;;;;;;;5.53;3.87;;;;;;;21.28;100.00;101577.41;5029978;28;20187;-71
2022/06/26 11:11:36;;;;;;;3.23;2.70;;;;;;;21.15;100.00;101554.06;5026329;28;20541;-70
2022/06/26 11:14:07;;;;;;;3.33;3.03;;;;;;;21.13;100.00;101564.41;5028495;28;20711;-70
2022/06/26 11:16:43;;;;;;;3.30;2.43;;;;;;;21.34;100.00;101614.59;5026734;28;20231;-70
2022/06/26 11:19:23;;;;;;;2.20;2.00;;;;;;;21.40;100.00;101605.44;5027856;28;20419;-70
2022/06/26 11:21:49;;;;;;;4.53;2.57;;;;;;;21.60;100.00;101609.53;5027198;28;20449;-71
2022/06/26 11:24:15;;;;;;;4.10;3.50;;;;;;;21.57;100.00;101575.38;5028176;28;20503;-71
2022/06/26 11:26:40;;;;;;;2.73;2.53;;;;;;;21.66;100.00;101582.03;5025984;28;20266;-70